Time;durP1;ratioP1;P1;durP2;ratioP2;P2;SDS_P1;SDS_P2;PMS_P1;PMS_P2;Temp;Humidity;BMP_temperature;BMP_pressure;BME280_temperature;BME280_humidity;BME280_pressure;Samples;Min_cycle;Max_cycle;Signal;HPM_P1;HPM_P2
2021/10/13 00:01:52;;;;;;;10.57;5.07;;;;;;;7.76;90.08;96339.88;5028507;28;20045;-76
2021/10/13 00:04:19;;;;;;;8.32;5.07;;;;;;;7.67;90.73;96336.25;5029462;28;20049;-75
2021/10/13 00:06:47;;;;;;;9.98;4.40;;;;;;;7.62;90.85;96339.03;5028377;28;20512;-75
2021/10/13 00:09:13;;;;;;;7.85;4.50;;;;;;;7.53;91.14;96336.25;5029204;28;20041;-76
2021/10/13 00:11:40;;;;;;;8.18;4.22;;;;;;;7.49;91.61;96336.03;5028120;28;20041;-76
2021/10/13 00:14:08;;;;;;;8.98;4.07;;;;;;;7.44;91.53;96349.66;5028506;28;20053;-76
2021/10/13 00:16:35;;;;;;;5.88;3.58;;;;;;;7.37;91.37;96349.25;5028805;28;20042;-76
2021/10/13 00:19:02;;;;;;;8.95;4.60;;;;;;;7.32;91.78;96352.03;5028562;28;20103;-74
2021/10/13 00:21:28;;;;;;;6.80;4.10;;;;;;;7.30;91.99;96348.81;5029351;28;20049;-77
2021/10/13 00:23:56;;;;;;;6.25;3.97;;;;;;;7.27;92.19;96341.31;5029123;28;20049;-76
2021/10/13 00:26:22;;;;;;;7.90;5.03;;;;;;;7.34;92.65;96366.09;5028762;28;20049;-77
2021/10/13 00:28:49;;;;;;;7.72;4.72;;;;;;;7.41;92.42;96365.69;5028216;28;20041;-76
2021/10/13 00:31:16;;;;;;;7.90;4.80;;;;;;;7.46;92.27;96374.53;5028572;28;20045;-76
2021/10/13 00:33:42;;;;;;;7.00;4.93;;;;;;;7.53;91.70;96369.56;5028125;28;20507;-75
2021/10/13 00:36:09;;;;;;;9.48;5.00;;;;;;;7.61;91.65;96383.50;5028113;28;20046;-76
2021/10/13 00:38:35;;;;;;;11.20;6.55;;;;;;;7.64;91.08;96385.63;5028588;28;20042;-75
2021/10/13 00:41:03;;;;;;;10.23;6.05;;;;;;;7.68;90.93;96376.63;5027163;28;20050;-74
2021/10/13 00:43:30;;;;;;;11.90;6.78;;;;;;;7.70;90.82;96384.44;5028620;28;20049;-75
2021/10/13 00:45:56;;;;;;;11.18;7.05;;;;;;;7.70;90.38;96393.38;5027746;28;20045;-76
2021/10/13 00:48:23;;;;;;;8.60;5.65;;;;;;;7.69;90.17;96394.47;5028321;28;20068;-76
2021/10/13 00:50:50;;;;;;;10.15;6.78;;;;;;;7.70;89.70;96396.09;5027833;28;20045;-75
2021/10/13 00:53:17;;;;;;;11.10;6.38;;;;;;;7.71;89.76;96402.31;5028424;28;20523;-76
2021/10/13 00:55:44;;;;;;;11.10;6.20;;;;;;;7.66;89.58;96403.19;5010104;28;20417;-76
2021/10/13 00:58:12;;;;;;;10.07;6.13;;;;;;;7.65;89.66;96407.00;5008248;28;20052;-76
2021/10/13 01:00:43;;;;;;;10.80;6.35;;;;;;;7.64;89.79;96415.44;5007985;28;20049;-77
2021/10/13 01:03:16;;;;;;;12.07;6.70;;;;;;;7.63;89.79;96411.13;5007853;28;20046;-75
2021/10/13 01:06:03;;;;;;;12.35;6.95;;;;;;;7.61;90.16;96426.88;5008387;28;20402;-75
2021/10/13 01:08:40;;;;;;;10.77;7.07;;;;;;;7.54;90.01;96424.56;4988036;28;20046;-75
2021/10/13 01:11:21;;;;;;;12.48;7.25;;;;;;;7.57;89.98;96427.47;4988502;28;20057;-76
2021/10/13 01:14:03;;;;;;;13.98;7.15;;;;;;;7.61;89.78;96432.28;4988248;28;20564;-76
2021/10/13 01:16:46;;;;;;;13.45;7.40;;;;;;;7.61;89.62;96435.00;4989175;28;20066;-75
2021/10/13 01:19:23;;;;;;;11.63;7.55;;;;;;;7.57;89.73;96446.44;4988609;28;20771;-75
2021/10/13 01:22:05;;;;;;;13.45;8.25;;;;;;;7.59;89.59;96438.81;4987565;28;20046;-75
2021/10/13 01:24:45;;;;;;;12.68;7.85;;;;;;;7.65;89.41;96439.53;4990807;28;20038;-75
2021/10/13 01:27:31;;;;;;;12.75;7.68;;;;;;;7.70;88.79;96438.66;4988881;28;20062;-75
2021/10/13 01:30:01;;;;;;;13.55;8.05;;;;;;;7.73;89.06;96449.72;4988358;28;20069;-74
2021/10/13 01:32:28;;;;;;;13.90;8.25;;;;;;;7.79;88.89;96447.72;4988417;28;20046;-75
2021/10/13 01:34:59;;;;;;;12.80;7.78;;;;;;;7.83;88.33;96446.81;4987781;28;20603;-75
2021/10/13 01:37:29;;;;;;;14.65;8.13;;;;;;;7.88;88.15;96456.75;4988404;28;20057;-75
2021/10/13 01:39:58;;;;;;;11.15;7.38;;;;;;;7.86;87.62;96461.69;4987987;28;20089;-76
2021/10/13 01:42:27;;;;;;;12.25;7.75;;;;;;;7.87;87.45;96457.84;4993748;28;20054;-75
2021/10/13 01:44:58;;;;;;;12.50;7.97;;;;;;;7.85;87.79;96463.59;5021846;28;20049;-76
2021/10/13 01:47:27;;;;;;;13.73;8.25;;;;;;;7.80;87.73;96460.16;5047041;28;20067;-75
2021/10/13 01:49:56;;;;;;;13.50;8.15;;;;;;;7.80;87.75;96468.28;5046969;28;20136;-75
2021/10/13 01:52:25;;;;;;;12.82;8.07;;;;;;;7.80;87.95;96465.59;5046377;28;20067;-75
2021/10/13 01:54:53;;;;;;;14.57;8.30;;;;;;;7.83;87.54;96473.13;5037834;28;20150;-75
2021/10/13 01:57:23;;;;;;;16.42;9.00;;;;;;;7.87;87.43;96479.56;5026256;28;20045;-75
2021/10/13 01:59:53;;;;;;;17.17;8.68;;;;;;;7.87;87.47;96476.84;5027910;28;20428;-75
2021/10/13 02:02:22;;;;;;;14.88;9.15;;;;;;;7.88;87.77;96481.16;5026144;28;20041;-74
2021/10/13 02:04:49;;;;;;;16.42;8.50;;;;;;;7.90;87.38;96489.81;5027336;28;20049;-74
2021/10/13 02:07:19;;;;;;;13.45;8.93;;;;;;;7.92;87.61;96487.59;5026615;28;20056;-75
2021/10/13 02:09:47;;;;;;;12.70;8.20;;;;;;;7.91;87.17;96485.19;5027154;28;20500;-77
2021/10/13 02:12:15;;;;;;;13.18;8.65;;;;;;;7.87;87.22;96493.09;5026392;28;20045;-76
2021/10/13 02:14:42;;;;;;;12.10;8.15;;;;;;;7.86;87.33;96486.09;5026504;28;20052;-75
2021/10/13 02:17:09;;;;;;;17.92;8.75;;;;;;;7.86;87.34;96496.94;5026705;28;20054;-75
2021/10/13 02:19:41;;;;;;;13.90;8.63;;;;;;;7.86;86.88;96507.78;5026571;28;20052;-75
2021/10/13 02:22:08;;;;;;;15.32;8.65;;;;;;;7.84;86.69;96509.97;5027272;28;20060;-76
2021/10/13 02:24:40;;;;;;;12.68;7.45;;;;;;;7.80;86.68;96514.38;5024169;28;20048;-74
2021/10/13 02:27:10;;;;;;;14.70;7.90;;;;;;;7.80;86.04;96517.91;5006950;28;20046;-75
2021/10/13 02:29:38;;;;;;;14.88;8.75;;;;;;;7.78;86.14;96517.41;5007524;28;20050;-75
2021/10/13 02:32:05;;;;;;;16.48;9.50;;;;;;;7.80;85.44;96520.59;5006834;28;20053;-74
2021/10/13 02:34:32;;;;;;;12.18;7.88;;;;;;;7.76;85.12;96521.50;5010318;28;20050;-75
2021/10/13 02:37:00;;;;;;;11.70;7.80;;;;;;;7.71;84.90;96525.06;5010646;28;20045;-75
2021/10/13 02:39:26;;;;;;;14.20;8.60;;;;;;;7.69;84.53;96529.19;5020612;28;20047;-75
2021/10/13 02:41:53;;;;;;;13.52;7.35;;;;;;;7.58;84.27;96526.66;5049910;28;20563;-75
2021/10/13 02:44:19;;;;;;;12.02;7.50;;;;;;;7.51;84.27;96528.09;5050415;28;20048;-75
2021/10/13 02:46:49;;;;;;;13.52;7.45;;;;;;;7.44;84.77;96536.59;5049892;28;20052;-75
2021/10/13 02:49:23;;;;;;;10.23;7.25;;;;;;;7.41;85.17;96539.88;5050482;28;20048;-75
2021/10/13 02:52:02;;;;;;;13.27;8.13;;;;;;;7.39;85.03;96542.09;5050132;28;20054;-75
2021/10/13 02:54:36;;;;;;;13.23;8.30;;;;;;;7.36;85.19;96548.13;5036123;28;20052;-75
2021/10/13 02:57:05;;;;;;;14.35;8.32;;;;;;;7.31;85.11;96554.41;5007471;28;20054;-75
2021/10/13 02:59:35;;;;;;;11.88;7.90;;;;;;;7.36;85.05;96553.53;5010635;28;20057;-75
2021/10/13 03:02:05;;;;;;;12.50;8.30;;;;;;;7.37;85.05;96565.97;5010496;28;20077;-74
2021/10/13 03:04:36;;;;;;;12.65;8.23;;;;;;;7.39;84.57;96562.97;5009999;28;20139;-74
2021/10/13 03:07:07;;;;;;;14.50;9.20;;;;;;;7.36;84.70;96564.38;5010532;28;20108;-73
2021/10/13 03:09:38;;;;;;;11.90;7.40;;;;;;;7.34;84.37;96571.97;5010331;28;20493;-75
2021/10/13 03:12:07;;;;;;;14.05;8.95;;;;;;;7.29;84.52;96575.53;5010154;28;20516;-74
2021/10/13 03:14:34;;;;;;;15.02;8.80;;;;;;;7.23;85.02;96575.91;5010500;28;20691;-74
2021/10/13 03:17:02;;;;;;;14.27;8.63;;;;;;;7.21;85.01;96583.53;5010197;28;20053;-74
2021/10/13 03:19:29;;;;;;;16.85;9.00;;;;;;;7.17;85.22;96571.66;5010282;28;20050;-74
2021/10/13 03:21:56;;;;;;;15.77;8.73;;;;;;;7.19;84.92;96580.28;5009710;28;20050;-75
2021/10/13 03:24:22;;;;;;;14.25;8.18;;;;;;;7.14;84.64;96583.06;5014637;28;20050;-75
2021/10/13 03:26:51;;;;;;;16.52;8.52;;;;;;;7.09;84.71;96581.22;5009935;28;20057;-74
2021/10/13 03:29:18;;;;;;;17.73;8.68;;;;;;;7.05;85.15;96578.31;5009952;28;20064;-75
2021/10/13 03:31:45;;;;;;;16.60;8.48;;;;;;;7.02;84.58;96584.28;5009988;28;20053;-75
2021/10/13 03:34:14;;;;;;;15.48;8.63;;;;;;;7.02;84.82;96592.41;5009305;28;20137;-75
2021/10/13 03:36:42;;;;;;;13.15;8.27;;;;;;;7.01;84.02;96590.81;5010172;28;20572;-74
2021/10/13 03:39:09;;;;;;;14.55;9.00;;;;;;;6.97;84.30;96597.09;5008752;28;20046;-76
2021/10/13 03:41:36;;;;;;;14.77;8.27;;;;;;;6.94;84.01;96597.66;5010497;28;20057;-75
2021/10/13 03:44:05;;;;;;;16.83;8.85;;;;;;;6.89;84.04;96601.25;5008112;28;20054;-74
2021/10/13 03:46:32;;;;;;;16.00;8.77;;;;;;;6.85;84.00;96600.19;5010310;28;20046;-74
2021/10/13 03:48:58;;;;;;;12.95;8.45;;;;;;;6.84;84.04;96606.72;5009045;28;20050;-74
2021/10/13 03:51:25;;;;;;;14.68;8.57;;;;;;;6.79;83.98;96609.47;5001407;28;20045;-75
2021/10/13 03:53:51;;;;;;;17.20;8.90;;;;;;;6.75;84.17;96603.00;5015214;28;20049;-74
2021/10/13 03:56:19;;;;;;;15.35;8.73;;;;;;;6.70;84.34;96611.19;5010593;28;20050;-75
2021/10/13 03:58:46;;;;;;;16.83;9.65;;;;;;;6.66;84.80;96615.56;5008169;28;20045;-74
2021/10/13 04:01:14;;;;;;;18.35;9.73;;;;;;;6.63;84.96;96614.25;5008924;28;20065;-75
2021/10/13 04:03:41;;;;;;;14.43;8.73;;;;;;;6.62;84.72;96625.31;5009208;28;20049;-75
2021/10/13 04:06:08;;;;;;;19.15;9.77;;;;;;;6.59;84.75;96626.72;5008299;28;20057;-74
2021/10/13 04:08:34;;;;;;;16.60;9.13;;;;;;;6.56;85.06;96626.47;5009742;28;20054;-74
2021/10/13 04:11:01;;;;;;;21.77;9.32;;;;;;;6.53;85.08;96631.38;5008859;28;20053;-75
2021/10/13 04:13:27;;;;;;;17.75;10.68;;;;;;;6.54;85.19;96632.97;5008378;28;20056;-75
2021/10/13 04:15:54;;;;;;;17.85;10.15;;;;;;;6.54;85.40;96640.28;5014111;28;20459;-75
2021/10/13 04:18:22;;;;;;;19.35;10.52;;;;;;;6.53;85.45;96644.91;5028799;28;20056;-75
2021/10/13 04:20:48;;;;;;;17.63;9.43;;;;;;;6.54;85.71;96640.28;5028788;28;20049;-74
2021/10/13 04:23:15;;;;;;;18.75;9.88;;;;;;;6.53;85.72;96655.72;5028331;28;20046;-74
2021/10/13 04:25:41;;;;;;;15.88;9.70;;;;;;;6.54;85.27;96657.34;5014618;28;20045;-75
2021/10/13 04:28:08;;;;;;;15.88;9.52;;;;;;;6.51;85.10;96640.84;5008184;28;20053;-74
2021/10/13 04:30:37;;;;;;;15.48;9.20;;;;;;;6.49;85.08;96653.88;5008942;28;20053;-75
2021/10/13 04:33:03;;;;;;;20.23;9.63;;;;;;;6.50;84.67;96655.47;5007374;28;20743;-74
2021/10/13 04:35:31;;;;;;;18.27;9.93;;;;;;;6.48;85.00;96658.47;5009517;28;20519;-75
2021/10/13 04:37:58;;;;;;;17.75;9.93;;;;;;;6.47;84.80;96662.28;5008219;28;20050;-75
2021/10/13 04:40:25;;;;;;;18.90;10.55;;;;;;;6.48;84.54;96660.38;5008838;28;20054;-74
2021/10/13 04:42:51;;;;;;;15.90;9.07;;;;;;;6.44;84.54;96662.84;5008466;28;20049;-75
2021/10/13 04:45:18;;;;;;;18.42;10.38;;;;;;;6.44;84.42;96662.03;5008351;28;20053;-75
2021/10/13 04:47:45;;;;;;;15.50;9.18;;;;;;;6.44;83.65;96668.25;5008337;28;20050;-75
2021/10/13 04:50:11;;;;;;;16.52;9.85;;;;;;;6.42;83.18;96659.63;5008179;28;20050;-75
2021/10/13 04:52:39;;;;;;;14.05;8.98;;;;;;;6.38;82.69;96657.75;5008427;28;20413;-75
2021/10/13 04:55:07;;;;;;;15.07;8.63;;;;;;;6.28;82.33;96658.66;5015765;28;20056;-75
2021/10/13 04:57:33;;;;;;;13.35;8.25;;;;;;;6.22;82.42;96659.78;5028180;28;20055;-75
2021/10/13 05:00:00;;;;;;;16.10;8.82;;;;;;;6.16;83.08;96656.31;5027716;28;20072;-75
2021/10/13 05:02:27;;;;;;;16.45;8.82;;;;;;;6.11;83.39;96658.22;5027762;28;20052;-76
2021/10/13 05:04:54;;;;;;;16.05;9.05;;;;;;;6.09;83.59;96665.81;5028330;28;20451;-75
2021/10/13 05:07:20;;;;;;;16.48;10.55;;;;;;;6.01;83.58;96664.53;5025937;28;20107;-75
2021/10/13 05:09:48;;;;;;;14.38;9.05;;;;;;;5.97;84.16;96664.28;5027844;28;20048;-74
2021/10/13 05:12:15;;;;;;;18.05;10.35;;;;;;;5.96;84.24;96672.66;5027257;28;20056;-75
2021/10/13 05:14:41;;;;;;;20.85;10.18;;;;;;;5.93;84.82;96667.81;5028030;28;20049;-74
2021/10/13 05:17:08;;;;;;;16.65;10.05;;;;;;;5.89;84.86;96677.53;5026941;28;20421;-74
2021/10/13 05:19:34;;;;;;;17.50;10.50;;;;;;;5.88;84.76;96675.91;5028085;28;20126;-74
2021/10/13 05:22:01;;;;;;;18.40;10.27;;;;;;;5.89;84.03;96678.34;5027195;28;20060;-74
2021/10/13 05:24:27;;;;;;;18.50;10.70;;;;;;;5.87;83.91;96688.63;5023890;28;20053;-75
2021/10/13 05:26:56;;;;;;;21.23;10.82;;;;;;;5.82;83.87;96693.25;5007487;28;20057;-75
2021/10/13 05:29:22;;;;;;;16.95;10.40;;;;;;;5.80;83.95;96690.84;5007312;28;20749;-75
2021/10/13 05:31:49;;;;;;;19.35;10.90;;;;;;;5.81;84.28;96695.16;5006800;28;20045;-76
2021/10/13 05:34:15;;;;;;;22.95;11.57;;;;;;;5.82;84.70;96699.47;5007388;28;20062;-75
2021/10/13 05:36:42;;;;;;;20.00;10.73;;;;;;;5.79;84.56;96694.59;5007997;28;20046;-75
2021/10/13 05:39:08;;;;;;;21.35;11.70;;;;;;;5.79;84.62;96704.63;5007170;28;20517;-74
2021/10/13 05:41:35;;;;;;;19.75;10.23;;;;;;;5.79;84.97;96708.13;5007996;28;20408;-76
2021/10/13 05:44:03;;;;;;;22.00;10.98;;;;;;;5.79;85.28;96712.72;5006547;28;20050;-74
2021/10/13 05:46:30;;;;;;;21.92;10.48;;;;;;;5.78;85.19;96722.72;5008153;28;20053;-75
2021/10/13 05:48:56;;;;;;;20.80;11.10;;;;;;;5.81;85.70;96724.88;5007267;28;20046;-75
2021/10/13 05:51:23;;;;;;;19.33;11.00;;;;;;;5.83;85.71;96730.81;5007871;28;20490;-74
2021/10/13 05:53:49;;;;;;;24.42;11.73;;;;;;;5.88;85.83;96735.38;5008161;28;20050;-75
2021/10/13 05:56:16;;;;;;;20.15;11.88;;;;;;;5.92;86.02;96731.88;5027093;28;20057;-75
2021/10/13 05:58:42;;;;;;;21.35;11.73;;;;;;;6.05;85.44;96735.03;5027056;28;20053;-75
2021/10/13 06:01:10;;;;;;;21.10;12.80;;;;;;;6.14;85.34;96746.88;5026876;28;20053;-74
2021/10/13 06:03:37;;;;;;;17.88;10.93;;;;;;;6.16;84.97;96747.41;5027222;28;20046;-75
2021/10/13 06:06:03;;;;;;;19.70;11.05;;;;;;;6.21;85.42;96750.09;5026146;28;20517;-74
2021/10/13 06:08:30;;;;;;;20.42;11.20;;;;;;;6.26;85.91;96760.88;5031132;28;20053;-75
2021/10/13 06:10:56;;;;;;;19.33;11.05;;;;;;;6.31;86.09;96758.13;5030871;28;20048;-75
2021/10/13 06:13:23;;;;;;;16.73;11.20;;;;;;;6.37;85.98;96767.84;5031261;28;20053;-76
2021/10/13 06:15:51;;;;;;;22.70;12.57;;;;;;;6.43;86.10;96772.13;5031017;28;20048;-75
2021/10/13 06:18:19;;;;;;;20.00;11.90;;;;;;;6.48;86.59;96777.50;5030923;28;20404;-76
2021/10/13 06:20:46;;;;;;;24.75;11.65;;;;;;;6.57;86.89;96785.00;5031026;28;20041;-74
2021/10/13 06:23:12;;;;;;;19.15;12.48;;;;;;;6.65;87.25;96784.44;5030992;28;20054;-75
2021/10/13 06:25:39;;;;;;;22.83;12.52;;;;;;;6.72;86.48;96782.19;5017756;28;20053;-75
2021/10/13 06:28:05;;;;;;;22.13;12.38;;;;;;;6.77;86.77;96787.56;5010434;28;20058;-75
2021/10/13 06:30:33;;;;;;;18.65;11.98;;;;;;;6.82;85.88;96792.94;5011805;28;20061;-76
2021/10/13 06:32:59;;;;;;;23.23;13.70;;;;;;;6.91;86.01;96791.25;5010329;28;20053;-75
2021/10/13 06:35:27;;;;;;;24.73;14.65;;;;;;;6.95;86.16;96795.00;5011405;28;20497;-75
2021/10/13 06:37:54;;;;;;;23.48;13.52;;;;;;;7.00;86.25;96794.97;5010433;28;20053;-74
2021/10/13 06:40:20;;;;;;;26.23;13.65;;;;;;;7.04;86.09;96790.59;5011336;28;20417;-76
2021/10/13 06:42:47;;;;;;;22.60;13.35;;;;;;;7.06;85.15;96793.03;5011186;28;20501;-75
2021/10/13 06:45:14;;;;;;;22.15;12.65;;;;;;;7.10;84.87;96798.66;5010662;28;20061;-76
2021/10/13 06:47:41;;;;;;;22.55;13.88;;;;;;;7.10;85.03;96804.06;5010599;28;20072;-75
2021/10/13 06:50:09;;;;;;;20.65;12.88;;;;;;;7.11;83.25;96813.84;5010433;28;20046;-74
2021/10/13 06:52:38;;;;;;;20.45;12.20;;;;;;;7.08;83.51;96809.78;5010948;28;20049;-74
2021/10/13 06:55:05;;;;;;;18.95;10.75;;;;;;;7.09;83.18;96807.88;5012310;28;20084;-76
2021/10/13 06:57:32;;;;;;;22.38;12.90;;;;;;;7.03;83.56;96816.06;5010998;28;20540;-76
2021/10/13 06:59:58;;;;;;;21.25;13.20;;;;;;;7.09;84.46;96819.53;5011003;28;20053;-75
2021/10/13 07:02:24;;;;;;;20.77;11.50;;;;;;;7.12;83.78;96818.97;5010866;28;20045;-75
2021/10/13 07:04:51;;;;;;;19.40;12.20;;;;;;;7.06;83.62;96820.91;5010435;28;20038;-75
2021/10/13 07:07:18;;;;;;;23.30;13.13;;;;;;;7.19;84.34;96824.03;5010396;28;20061;-75
2021/10/13 07:09:45;;;;;;;19.77;12.10;;;;;;;7.27;84.33;96826.97;5011265;28;20468;-76
2021/10/13 07:12:12;;;;;;;19.08;11.48;;;;;;;7.34;84.68;96834.75;5010037;28;20050;-74
2021/10/13 07:14:38;;;;;;;21.77;12.70;;;;;;;7.45;84.67;96836.25;5010496;28;20049;-74
2021/10/13 07:17:05;;;;;;;20.00;12.63;;;;;;;7.51;83.93;96843.25;5009420;28;20058;-76
2021/10/13 07:19:31;;;;;;;22.88;12.73;;;;;;;7.54;84.15;96848.09;5009795;28;20057;-75
2021/10/13 07:21:58;;;;;;;18.23;12.25;;;;;;;7.50;83.76;96841.63;5009945;28;20058;-74
2021/10/13 07:24:24;;;;;;;21.42;12.68;;;;;;;7.55;83.85;96832.66;5012546;28;20042;-75
2021/10/13 07:26:52;;;;;;;22.98;13.15;;;;;;;7.59;83.97;96845.34;5009638;28;20046;-74
2021/10/13 07:29:19;;;;;;;24.15;13.27;;;;;;;7.68;84.65;96831.97;5010197;28;20050;-75
2021/10/13 07:31:45;;;;;;;22.95;13.38;;;;;;;7.70;84.39;96837.09;5009803;28;20053;-73
2021/10/13 07:34:12;;;;;;;28.10;15.48;;;;;;;7.74;83.43;96835.44;5008922;28;20042;-74
2021/10/13 07:36:39;;;;;;;34.08;15.40;;;;;;;7.81;82.74;96841.31;5009317;28;20417;-74
2021/10/13 07:39:06;;;;;;;30.92;16.55;;;;;;;7.83;82.69;96848.09;5008764;28;20046;-74
2021/10/13 07:41:32;;;;;;;33.45;17.95;;;;;;;7.80;82.66;96853.25;5009868;28;20119;-74
2021/10/13 07:44:00;;;;;;;29.95;16.85;;;;;;;7.81;82.66;96857.59;5008712;28;20045;-74
2021/10/13 07:46:27;;;;;;;30.00;15.70;;;;;;;7.79;82.90;96854.38;5009599;28;20056;-74
2021/10/13 07:48:53;;;;;;;23.90;14.63;;;;;;;7.85;83.00;96861.34;5008560;28;20125;-74
2021/10/13 07:51:20;;;;;;;21.02;12.55;;;;;;;7.86;82.92;96860.25;5009640;28;20497;-74
2021/10/13 07:53:47;;;;;;;24.83;11.80;;;;;;;7.83;82.05;96872.47;5009317;28;20045;-74
2021/10/13 07:56:13;;;;;;;19.25;12.10;;;;;;;7.85;82.25;96864.06;5010543;28;20053;-74
2021/10/13 07:58:40;;;;;;;20.05;11.05;;;;;;;7.86;82.31;96873.78;5009134;28;20092;-74
2021/10/13 08:01:08;;;;;;;18.15;12.32;;;;;;;7.84;82.11;96871.38;5008781;28;20066;-73
2021/10/13 08:03:34;;;;;;;21.27;12.07;;;;;;;7.88;82.22;96885.16;5009162;28;20050;-74
2021/10/13 08:06:01;;;;;;;21.77;13.35;;;;;;;7.82;82.22;96880.88;5008937;28;20049;-76
2021/10/13 08:08:27;;;;;;;24.30;13.68;;;;;;;7.72;81.03;96886.41;5009205;28;20042;-74
2021/10/13 08:10:54;;;;;;;23.08;13.45;;;;;;;7.73;81.56;96879.91;5008676;28;20061;-75
2021/10/13 08:13:20;;;;;;;21.58;13.43;;;;;;;7.72;81.27;96889.13;5009229;28;20057;-73
2021/10/13 08:15:47;;;;;;;25.98;15.05;;;;;;;7.76;82.16;96887.47;5008529;28;20050;-74
2021/10/13 08:18:15;;;;;;;25.17;15.57;;;;;;;7.86;82.29;96895.50;5008321;28;20053;-74
2021/10/13 08:20:41;;;;;;;23.95;14.45;;;;;;;7.94;82.77;96894.06;5008452;28;20041;-74
2021/10/13 08:23:08;;;;;;;21.42;12.95;;;;;;;7.94;83.00;96897.59;5008100;28;20061;-74
2021/10/13 08:25:34;;;;;;;22.48;13.48;;;;;;;8.06;83.20;96892.56;5010940;28;20057;-74
2021/10/13 08:28:01;;;;;;;24.30;14.23;;;;;;;8.17;83.02;96887.03;5008133;28;20046;-73
2021/10/13 08:30:27;;;;;;;22.30;12.43;;;;;;;8.22;81.85;96889.69;5008744;28;20072;-74
2021/10/13 08:32:54;;;;;;;20.38;11.75;;;;;;;8.19;80.38;96890.25;5007657;28;20065;-73
2021/10/13 08:35:22;;;;;;;19.25;12.85;;;;;;;8.22;80.77;96885.06;5008886;28;20409;-74
2021/10/13 08:37:48;;;;;;;21.88;14.18;;;;;;;8.34;81.54;96893.56;5007910;28;20038;-74
2021/10/13 08:40:15;;;;;;;16.17;11.45;;;;;;;8.57;81.75;96883.84;5009199;28;20050;-75
2021/10/13 08:42:53;;;;;;;15.43;10.43;;;;;;;8.75;80.70;96893.09;5008081;28;20045;-74
2021/10/13 08:45:19;;;;;;;15.00;10.82;;;;;;;8.75;79.10;96892.28;5008784;28;20108;-74
2021/10/13 08:47:46;;;;;;;14.50;10.68;;;;;;;8.73;78.43;96895.28;5008504;28;20046;-74
2021/10/13 08:50:12;;;;;;;14.75;10.30;;;;;;;8.67;77.68;96895.66;5008433;28;20050;-74
2021/10/13 08:52:40;;;;;;;14.68;9.60;;;;;;;8.61;77.67;96903.03;5008778;28;20417;-73
2021/10/13 08:55:08;;;;;;;14.88;9.73;;;;;;;8.58;78.06;96895.50;5009933;28;20042;-73
2021/10/13 08:57:35;;;;;;;13.13;8.68;;;;;;;8.65;77.39;96898.66;5009390;28;20056;-74
2021/10/13 09:00:01;;;;;;;12.73;7.20;;;;;;;8.70;77.41;96900.50;5007581;28;20053;-71
2021/10/13 09:02:40;;;;;;;13.75;8.13;;;;;;;8.85;77.98;96905.72;5008836;28;20049;-73
2021/10/13 09:05:11;;;;;;;9.93;7.22;;;;;;;8.94;78.51;96903.97;5007773;28;20144;-73
2021/10/13 09:07:46;;;;;;;9.55;6.65;;;;;;;8.94;77.27;96892.28;5008376;28;20049;-74
2021/10/13 09:10:13;;;;;;;12.25;7.50;;;;;;;8.93;76.98;96894.19;5008148;28;20054;-76
2021/10/13 09:12:41;;;;;;;11.25;6.95;;;;;;;9.03;78.07;96898.66;5008280;28;20642;-73
2021/10/13 09:15:11;;;;;;;10.05;7.00;;;;;;;9.15;77.38;96907.19;5008174;28;20050;-73
2021/10/13 09:17:55;;;;;;;12.48;7.30;;;;;;;9.31;77.81;96913.19;5007977;28;20095;-73
2021/10/13 09:20:23;;;;;;;9.32;6.63;;;;;;;9.37;76.42;96910.09;5008295;28;20049;-74
2021/10/13 09:23:04;;;;;;;10.18;6.05;;;;;;;9.33;76.26;96911.78;5008162;28;20045;-74
2021/10/13 09:25:31;;;;;;;10.35;6.18;;;;;;;9.18;75.58;96916.63;5010085;28;20038;-74
2021/10/13 09:28:00;;;;;;;9.13;6.43;;;;;;;9.08;75.57;96902.13;5008102;28;20524;-74
2021/10/13 09:30:29;;;;;;;10.02;6.57;;;;;;;9.00;74.85;96915.56;5007575;28;20045;-74
2021/10/13 09:33:09;;;;;;;10.65;6.57;;;;;;;8.85;74.59;96908.44;5007904;28;20438;-74
2021/10/13 09:35:35;;;;;;;14.02;7.05;;;;;;;8.91;75.80;96912.69;5007842;28;20046;-74
2021/10/13 09:38:03;;;;;;;9.55;5.70;;;;;;;9.09;75.68;96909.16;5008047;28;20054;-73
2021/10/13 09:40:31;;;;;;;9.55;4.20;;;;;;;9.02;69.76;96903.28;5007488;28;20042;-73
2021/10/13 09:42:59;;;;;;;6.82;4.35;;;;;;;9.09;72.10;96903.75;5007473;28;20042;-74
2021/10/13 09:45:27;;;;;;;12.25;4.38;;;;;;;9.30;71.77;96903.44;5007079;28;20492;-74
2021/10/13 09:48:01;;;;;;;7.30;4.82;;;;;;;9.56;71.74;96911.97;5007676;28;20131;-74
2021/10/13 09:50:42;;;;;;;8.23;4.38;;;;;;;9.77;70.26;96912.44;5007559;28;20053;-73
2021/10/13 09:53:19;;;;;;;7.32;4.10;;;;;;;10.03;71.97;96904.63;5006697;28;20050;-73
2021/10/13 09:55:46;;;;;;;6.25;3.70;;;;;;;10.23;66.33;96903.41;5010669;28;20049;-73
2021/10/13 09:58:23;;;;;;;8.93;3.85;;;;;;;10.35;69.28;96895.59;5007057;28;20049;-73
2021/10/13 10:00:50;;;;;;;8.95;3.70;;;;;;;10.50;67.35;96898.00;5007983;28;20100;-73
2021/10/13 10:03:19;;;;;;;6.95;3.25;;;;;;;10.58;67.19;96894.53;5007221;28;20054;-74
2021/10/13 10:05:46;;;;;;;7.00;3.30;;;;;;;10.52;67.47;96895.75;5007584;28;20390;-74
2021/10/13 10:08:13;;;;;;;8.95;3.95;;;;;;;10.52;67.56;96895.75;5007059;28;20054;-73
2021/10/13 10:11:02;;;;;;;5.55;3.13;;;;;;;10.23;63.88;96895.22;5007587;28;20049;-75
2021/10/13 10:13:34;;;;;;;9.20;4.03;;;;;;;9.94;66.59;96891.69;5007988;28;20053;-73
2021/10/13 10:16:01;;;;;;;8.05;4.03;;;;;;;9.78;68.12;96903.97;5007426;28;20112;-74
2021/10/13 10:18:32;;;;;;;7.80;4.75;;;;;;;9.67;70.51;96895.19;5007797;28;20057;-74
2021/10/13 10:21:17;;;;;;;8.18;4.80;;;;;;;9.46;71.53;96898.56;5007373;28;20050;-74
2021/10/13 10:23:45;;;;;;;9.57;5.90;;;;;;;9.36;73.53;96891.38;5007353;28;20057;-74
2021/10/13 10:26:33;;;;;;;8.68;4.60;;;;;;;9.27;75.24;96895.84;5027350;28;20056;-73
2021/10/13 10:29:02;;;;;;;8.38;4.63;;;;;;;9.04;75.00;96895.66;5026615;28;20072;-73
2021/10/13 10:31:37;;;;;;;6.57;4.95;;;;;;;9.08;76.54;96896.69;5027594;28;20056;-73
2021/10/13 10:34:25;;;;;;;8.75;4.93;;;;;;;9.11;76.36;96898.81;5026694;28;20107;-74
2021/10/13 10:37:14;;;;;;;9.13;5.35;;;;;;;9.17;76.85;96896.00;5022291;28;20488;-73
2021/10/13 10:40:02;;;;;;;8.70;4.25;;;;;;;9.11;74.72;96901.53;5027656;28;20127;-73
2021/10/13 10:42:47;;;;;;;10.52;4.50;;;;;;;9.10;75.69;96899.91;5026546;28;20426;-73
2021/10/13 10:45:17;;;;;;;7.72;4.50;;;;;;;9.07;74.71;96899.69;5027274;28;20076;-73
2021/10/13 10:47:56;;;;;;;8.68;5.20;;;;;;;9.07;74.85;96888.81;5026555;28;20095;-74
2021/10/13 10:51:01;;;;;;;6.70;5.03;;;;;;;9.08;75.68;96901.28;5026475;28;20056;-73
2021/10/13 10:53:30;;;;;;;7.97;4.53;;;;;;;9.06;75.67;96903.50;4965913;28;20081;-73
2021/10/13 10:56:16;;;;;;;9.35;4.68;;;;;;;9.08;75.61;96895.84;5003311;28;20536;-73
2021/10/13 10:59:15;;;;;;;7.55;4.15;;;;;;;9.01;73.88;96895.44;5010990;28;20084;-74
2021/10/13 11:02:07;;;;;;;6.60;4.32;;;;;;;9.01;74.45;96903.59;5001459;28;20464;-73
2021/10/13 11:04:33;;;;;;;7.50;4.72;;;;;;;8.95;75.20;96908.28;5010177;28;20489;-73
2021/10/13 11:07:02;;;;;;;8.90;4.45;;;;;;;9.02;75.55;96914.16;5010330;28;20057;-74
2021/10/13 11:09:29;;;;;;;11.02;4.55;;;;;;;9.11;74.62;96906.97;5010120;28;20405;-74
2021/10/13 11:11:55;;;;;;;8.02;3.58;;;;;;;9.15;72.93;96908.00;5010876;28;20504;-73
2021/10/13 11:14:24;;;;;;;6.15;4.00;;;;;;;9.20;72.14;96898.16;5010043;28;20053;-73
2021/10/13 11:16:54;;;;;;;8.30;4.40;;;;;;;9.17;71.53;96904.16;5009841;28;20077;-73
2021/10/13 11:19:24;;;;;;;6.97;3.95;;;;;;;9.16;70.91;96897.91;5010265;28;20108;-73
2021/10/13 11:21:58;;;;;;;7.15;4.18;;;;;;;9.18;69.34;96900.34;5009960;28;20057;-75
2021/10/13 11:24:25;;;;;;;7.88;4.70;;;;;;;9.22;71.54;96899.47;5012314;28;20072;-75
2021/10/13 11:26:52;;;;;;;9.95;4.57;;;;;;;9.38;72.81;96895.38;5009585;28;20527;-73
2021/10/13 11:29:21;;;;;;;8.38;4.30;;;;;;;9.70;70.86;96896.47;5010335;28;20819;-74
2021/10/13 11:31:50;;;;;;;5.88;3.58;;;;;;;10.02;67.48;96892.91;5009815;28;20054;-73
2021/10/13 11:34:19;;;;;;;7.22;3.83;;;;;;;10.03;67.21;96899.97;5009831;28;20050;-73
2021/10/13 11:36:55;;;;;;;8.10;3.10;;;;;;;10.17;67.84;96900.78;5010024;28;20046;-73
2021/10/13 11:39:24;;;;;;;7.90;3.42;;;;;;;10.31;66.75;96900.00;5009306;28;20085;-74
2021/10/13 11:41:50;;;;;;;6.07;2.92;;;;;;;10.31;64.20;96900.00;5010419;28;20042;-73